createdAt,value
2019-04-11T20:51:50.531Z,4.43
2019-04-11T20:53:12.782Z,4.3
2019-04-11T20:54:23.018Z,4.3
2019-04-11T20:55:33.207Z,4.31
2019-04-11T20:56:46.984Z,4.22
2019-04-11T20:57:57.182Z,4.28
2019-04-11T20:59:10.012Z,4.36
2019-04-11T21:00:20.501Z,4.31
2019-04-11T21:01:31.148Z,4.34
2019-04-11T21:02:41.307Z,4.25
2019-04-11T21:03:51.503Z,4.28
2019-04-11T21:05:06.155Z,4.33
2019-04-11T21:06:16.273Z,4.3
2019-04-11T21:07:26.442Z,4.36
2019-04-11T21:08:41.687Z,4.31
2019-04-11T21:09:51.816Z,4.34
2019-04-11T21:11:04.481Z,4.25
2019-04-11T21:12:15.318Z,4.41
2019-04-11T21:13:25.482Z,4.41
2019-04-11T21:14:35.618Z,4.43
2019-04-11T21:15:46.155Z,4.43
2019-04-11T21:16:56.282Z,4.49
2019-04-11T21:18:06.428Z,4.4
2019-04-11T21:19:16.560Z,4.4
2019-04-11T21:20:29.290Z,4.46
2019-04-11T21:21:39.430Z,4.38
2019-04-11T21:22:53.519Z,4.28
2019-04-11T21:24:05.881Z,4.33
2019-04-11T21:25:16.023Z,4.23
2019-04-11T21:26:28.469Z,4.2
2019-04-11T21:27:38.995Z,4.19
2019-04-11T21:28:49.137Z,4.23
2019-04-11T21:30:02.351Z,4.23
2019-04-11T21:31:12.477Z,4.23
2019-04-11T21:32:22.585Z,4.23
2019-04-11T21:33:39.891Z,4.27
2019-04-11T21:34:50.044Z,4.16
2019-04-11T21:36:01.312Z,4.19
2019-04-11T21:37:11.589Z,4.18
2019-04-11T21:38:21.727Z,4.15
2019-04-11T21:39:35.915Z,4.22
2019-04-11T21:40:46.038Z,4.12
2019-04-11T21:41:56.154Z,4.12
2019-04-11T21:43:08.512Z,4.13
2019-04-11T21:44:18.628Z,4.19
2019-04-11T21:45:28.767Z,4.2
2019-04-11T21:46:44.520Z,4.2
2019-04-11T21:47:57.142Z,4.22
2019-04-11T21:49:11.145Z,4.18
2019-04-11T21:50:21.263Z,4.18
2019-04-11T21:51:31.412Z,4.12
2019-04-11T21:52:45.997Z,4.15
2019-04-11T21:53:56.145Z,4.13
2019-04-11T21:55:06.349Z,4.01
2019-04-11T21:56:23.152Z,4.15
2019-04-11T21:57:33.279Z,4.05
2019-04-11T21:58:43.383Z,4.15
2019-04-11T21:59:57.488Z,4.03
2019-04-11T22:01:09.331Z,4.01
2019-04-11T22:02:19.450Z,4.01
2019-04-11T22:03:31.936Z,4.01
2019-04-11T22:04:42.064Z,4.04
2019-04-11T22:05:52.185Z,4.04
2019-04-11T22:07:06.322Z,4.04
2019-04-11T22:08:16.447Z,4.01
2019-04-11T22:09:26.560Z,4.03
2019-04-11T22:10:45.119Z,4
2019-04-11T22:11:55.266Z,4.03
2019-04-11T22:13:05.373Z,4.16
2019-04-11T22:14:18.015Z,4.01
2019-04-11T22:15:28.137Z,3.95
2019-04-11T22:16:38.286Z,3.98
2019-04-11T22:17:51.832Z,3.97
2019-04-11T22:19:01.946Z,3.95
2019-04-11T22:20:14.039Z,4.04
2019-04-11T22:21:26.250Z,4.01
2019-04-11T22:22:36.374Z,3.98
2019-04-11T22:23:53.672Z,3.97
2019-04-11T22:25:04.714Z,4.03
2019-04-11T22:26:14.842Z,4.03
2019-04-11T22:27:27.643Z,4.03
2019-04-11T22:28:37.769Z,4.01
2019-04-11T22:29:47.890Z,4.03
2019-04-11T22:31:00.723Z,4.03
2019-04-11T22:32:10.594Z,3.97
2019-04-11T22:33:20.714Z,3.91
2019-04-11T22:34:35.242Z,3.83
2019-04-11T22:35:45.348Z,3.82
2019-04-11T22:36:55.473Z,3.94
2019-04-11T22:38:07.736Z,3.86
2019-04-11T22:39:17.599Z,3.94
2019-04-11T22:40:31.401Z,3.82
2019-04-11T22:41:41.964Z,3.87
2019-04-11T22:42:52.096Z,3.85
2019-04-11T22:44:02.244Z,3.85
2019-04-11T22:45:15.618Z,3.93
2019-04-11T22:46:26.099Z,4.01
2019-04-11T22:47:40.484Z,3.97
2019-04-11T22:48:50.609Z,3.97
2019-04-11T22:50:00.730Z,4
2019-04-11T22:51:16.235Z,3.87
2019-04-11T22:52:26.354Z,3.87
2019-04-11T22:53:36.478Z,3.94
2019-04-11T22:54:50.753Z,3.9
2019-04-11T22:56:00.849Z,3.82
2019-04-11T22:57:14.527Z,3.79
2019-04-11T22:58:24.654Z,3.69
2019-04-11T22:59:34.523Z,3.65
2019-04-11T23:00:47.610Z,3.62
2019-04-11T23:01:59.417Z,3.69
2019-04-11T23:03:09.594Z,3.77
2019-04-11T23:04:22.573Z,3.72
2019-04-11T23:05:32.762Z,3.68
2019-04-11T23:06:44.887Z,3.69
2019-04-11T23:07:55.618Z,3.65
2019-04-11T23:09:08.176Z,3.64
2019-04-11T23:10:20.034Z,3.65
2019-04-11T23:11:30.129Z,3.75
2019-04-11T23:12:40.236Z,3.59
2019-04-11T23:13:53.360Z,3.68
2019-04-11T23:15:03.460Z,3.73
2019-04-11T23:16:16.605Z,3.68
2019-04-11T23:17:26.726Z,3.68
2019-04-11T23:18:36.854Z,3.73
2019-04-11T23:19:49.590Z,3.82
2019-04-11T23:21:00.897Z,3.75
2019-04-11T23:22:14.298Z,3.76
2019-04-11T23:23:24.391Z,3.73
2019-04-11T23:24:34.514Z,3.72
2019-04-11T23:25:44.624Z,3.73
2019-04-11T23:26:54.732Z,3.77
2019-04-11T23:28:04.838Z,3.68
2019-04-11T23:29:18.419Z,3.83
2019-04-11T23:30:28.549Z,3.75
2019-04-11T23:31:38.656Z,3.69
2019-04-11T23:32:50.690Z,3.67
2019-04-11T23:34:01.319Z,3.73
2019-04-11T23:35:11.440Z,3.73
2019-04-11T23:36:24.425Z,3.75
2019-04-11T23:37:34.525Z,3.69
2019-04-11T23:38:44.630Z,3.76
2019-04-11T23:39:56.028Z,3.64
2019-04-11T23:41:06.132Z,3.65
2019-04-11T23:42:19.564Z,3.76
2019-04-11T23:43:29.816Z,3.8
2019-04-11T23:44:39.937Z,3.77
2019-04-11T23:45:53.578Z,3.77
2019-04-11T23:47:03.436Z,3.72
2019-04-11T23:48:13.528Z,3.8
2019-04-11T23:49:27.475Z,3.68
2019-04-11T23:50:37.574Z,3.72
2019-04-11T23:51:47.672Z,3.75
2019-04-11T23:53:02.861Z,3.75
2019-04-11T23:54:22.682Z,3.64
2019-04-11T23:55:36.337Z,3.79
2019-04-11T23:56:46.465Z,3.77
2019-04-11T23:57:56.570Z,3.69
2019-04-11T23:59:09.267Z,3.64
